Highlands Peak, California Weather observations

Data are for observation ending at time listed.
 Day   Time    Ave.   Ave.  Ave.  Vector   Max.   Stn.    Total    Solar   Ave.  
  of    of     Air    Rel.  Wind   Wind    Wind   Baro.  Precip.   Rad.    Soil  
Year   Day     Temp.  Hum.  Speed  Dir.    Gust   Pres.                    Temp. 
2026   (PST)    F      %     mph   deg.    mph     mb.     in.     W/m2     F   
------------------------------------------------------------------------------
 241   22:50   75.0    14    2.0     5      3.3   928.2    0.00       0    86.0
 241   23:00   75.1    14    0.5     8      2.7   928.2    0.00       0    85.9
 241   23:10   74.3    14    0.0     4      0.7   928.1    0.00       0    85.6
 241   23:20   74.1    16    0.5   224      1.2   928.1    0.00       0    85.4
 241   23:30   73.6    16    1.5   232      2.4   928.1    0.00       0    85.3
 241   23:40   73.0    16    2.2   287      5.0   928.0    0.00       0    85.0
 241   23:50   72.5    14    3.1     9      5.5   928.0    0.00       0    85.0
 242    0:00   73.0    14    2.2     8      3.9   927.9    0.00       0    85.0
 242    0:10   73.0    15    0.6    60      2.4   927.9    0.00       0    85.0
 242    0:20   73.0    16    0.4    29      1.5   927.8    0.00       0    84.9
 242    0:30   72.9    15    1.1     5      2.7   927.8    0.00       0    84.8
 242    0:40   72.7    15    1.1   356      2.9   927.8    0.00       0    84.6
 242    0:50   72.6    16    1.3   258      2.2   927.7    0.00       0    84.4
 242    1:00   72.6    16    0.6   349      1.9   927.7    0.00       0    84.3
 242    1:10   72.3    15    1.3    11      2.7   927.7    0.00       0    84.3
 242    1:20   72.2    16    1.3    68      2.7   927.7    0.00       0    84.2
 242    1:30   71.8    18    4.1   103      4.6   927.6    0.00       0    84.2
 242    1:40   71.2    18    4.0   100      4.8   927.6    0.00       0    84.1
 242    1:50   70.9    19    3.4    89      4.4   927.6    0.00       0    84.0
 242    2:00   70.2    18    3.0    52      4.5   927.7    0.00       0    83.9
 242    2:10   69.7    18    5.7    75      6.5   927.7    0.00       0    83.9
 242    2:20   69.5    20    5.4    92      6.8   927.7    0.00       0    83.9
 242    2:30   69.3    20    2.3   118      3.5   927.8    0.00       0    83.6
 242    2:40   69.4    22    2.2   132      2.9   927.9    0.00       0    83.5
 242    2:50   69.7    21    2.2   120      3.0   927.9    0.00       0    83.4
 242    3:00   69.7    21    2.7   107      4.3   928.0    0.00       0    83.3
 242    3:10   69.7    22    4.4   125      5.0   928.0    0.00       0    83.2
 242    3:20   70.1    21    3.1   138      4.5   927.9    0.00       0    83.0
 242    3:30   69.2    22    1.8   136      4.1   928.0    0.00       0    82.8
 242    3:40   68.9    23    4.0    84      5.0   927.9    0.00       0    82.8
 242    3:50   69.0    22    3.0    62      5.1   927.9    0.00       0    82.7
 242    4:00   69.2    21    1.6   348      2.9   928.0    0.00       0    82.5
 242    4:10   68.8    20    2.4    13      5.0   928.0    0.00       0    82.3
 242    4:20   68.1    20    3.5    26      4.8   928.0    0.00       0    82.2
 242    4:30   68.1    20    3.4    15      4.5   928.0    0.00       0    82.1
 242    4:40   68.8    20    1.8    13      3.0   928.0    0.00       0    82.0
 242    4:50   69.2    21    1.5    37      2.6   928.0    0.00       0    81.8
 242    5:00   69.4    22    0.6   136      2.3   928.1    0.00       0    81.7
 242    5:10   69.3    22    1.5   234      2.0   928.1    0.00       0    81.5
 242    5:20   69.2    22    1.1   239      1.8   928.1    0.00       0    81.4
 242    5:30   68.8    22    1.1   306      1.7   928.1    0.00       1    81.2
 242    5:40   68.5    22    3.4    10      5.3   928.1    0.00       3    81.2
 242    5:50   67.4    22    3.8    20      5.3   928.2    0.00       6    81.0
 242    6:00   67.7    22    3.7    11      4.6   928.2    0.00      11    81.0
 242    6:10   68.1    22    3.5     5      4.6   928.3    0.00      18    80.9
 242    6:20   68.3    22    4.8    16      6.5   928.3    0.00      28    80.8
 242    6:30   68.4    22    4.5    30      6.4   928.4    0.00      64    80.7
 242    6:40   69.5    21    3.4    19      4.5   928.4    0.00     122    80.5
 242    6:50   70.5    21    3.0    16      3.9   928.5    0.00     172    80.4
 242    7:00   70.8    20    3.8     8      7.0   928.5    0.00     224    80.2
 242    7:10   70.6    21    4.3     4      5.8   928.5    0.00     266    80.1
 242    7:20   71.0    22    3.1     6      4.7   928.5    0.00     307    80.0
 242    7:30   72.0    21    1.2    29      3.2   928.5    0.00     334    79.7
 242    7:40   73.0    22    2.0    54      3.4   928.6    0.00     377    79.8
 242    7:50   72.1    22    0.9   257      1.6   928.5    0.00     416    79.4
 242    8:00   70.8    22    2.5   250      4.5   928.5    0.00     456    79.1
 242    8:10   70.4    22    2.1   270      3.8   928.5    0.00     489    78.9
 242    8:20   71.4    22    1.5   272      2.4   928.5    0.00     530    78.8
 242    8:30   71.6    22    2.0   231      2.7   928.5    0.00     551    78.6
 242    8:40   71.3    22    2.3   225      3.1   928.6    0.00     571    78.4
 242    8:50   71.0    24    1.7   229      2.4   928.5    0.00     600    78.3
 242    9:00   70.3    24    2.0   240      2.7   928.6    0.00     637    78.2
 242    9:10   70.1    24    2.1   238      3.8   928.6    0.00     672    78.1
 242    9:20   69.4    25    2.9   231      4.6   928.6    0.00     703    78.0
 242    9:30   69.9    24    2.7   237      3.8   928.8    0.00     726    77.9
 242    9:40   70.4    25    2.2   239      3.7   928.8    0.00     748    77.9
 242    9:50   71.6    25    2.6   232      4.2   928.8    0.00     771    77.9
 242   10:00   71.7    29    3.2   221      4.7   928.9    0.00     783    77.9
 242   10:10   71.9    30    3.2   212      5.2   929.0    0.00     802    77.9
 242   10:20   73.0    30    2.6   218      4.3   929.0    0.00     819    78.0
 242   10:30   73.2    29    2.3   226      5.0   929.0    0.00     847    78.1
 242   10:40   74.7    28    2.4   177      5.8   929.0    0.00     856    78.2
 242   10:50   74.9    25    3.1   160      6.3   929.1    0.00     865    78.3
 242   11:00   74.6    24    3.7   147      7.6   929.1    0.00     880    78.4
 242   11:10   74.0    28    3.2   187      8.0   929.1    0.00     887    78.4
 242   11:20   73.7    31    2.3   218      4.9   929.1    0.00     883    78.5
 242   11:30   73.8    30    3.6   222      7.2   929.1    0.00     873    78.5
 242   11:40   73.2    30    3.5   229      5.9   929.0    0.00     884    78.5
 242   11:50   74.0    28    3.6   209      8.5   929.1    0.00     898    78.7
 242   12:00   76.0    23    2.8   194      6.1   929.0    0.00     903    78.8
 242   12:10   75.8    23    3.1   217      7.1   928.9    0.00     910    78.9
 242   12:20   74.1    23    5.0   226      6.9   928.9    0.00     909    78.9
 242   12:30   72.8    20    4.5   228      6.2   928.9    0.00     915    79.1
 242   12:40   74.2    10    4.7   231      6.6   928.8    0.00     910    79.1
 242   12:50   74.5    13    4.7   229      7.2   928.8    0.00     905    79.2
 242   13:00   74.0    23    3.9   238      6.4   928.7    0.00     899    79.3
 242   13:10   73.1    29    3.2   238      5.3   928.7    0.00     894    79.5
 242   13:20   72.0    35    2.6   235      4.3   928.6    0.00     878    79.8
 242   13:30   72.2    40    3.3   222      6.0   928.6    0.00     864    80.2
 242   13:40   71.9    33    2.9   244      4.9   928.5    0.00     850    80.5
 242   13:50   73.0    23    2.3   240      4.7   928.5    0.00     833    80.7
 242   14:00   72.4    37    2.6   244      4.8   928.4    0.00     814    81.1
 242   14:10   71.7    29    2.7   244      4.4   928.3    0.00     772    81.4
 242   14:20   72.6    22    2.8   246      4.8   928.3    0.00     775    81.7
 242   14:30   72.7    12    2.7   246      4.7   928.2    0.00     751    82.0
 242   14:40   73.9    13    2.4   252      4.5   928.1    0.00     729    82.3
 242   14:50   73.6    10    2.9   247      5.1   928.0    0.00     706    82.6
 242   15:00   73.3    16    3.3   259      5.1   927.9    0.00     680    82.9
 242   15:10   73.9    21    3.1   249      5.0   927.8    0.00     651    83.2
 242   15:20   73.5    20    3.4   246      5.7   927.8    0.00     623    83.6
 242   15:30   72.9    19    3.6   248      5.8   927.7    0.00     592    83.8
 242   15:40   72.5    21    3.9   253      5.2   927.6    0.00     561    84.1
 242   15:50   73.2    20    2.6   248      4.7   927.6    0.00     530    84.4
 242   16:00   73.7    15    2.4   245      4.2   927.6    0.00     498    84.6
 242   16:10   73.6    15    3.1   253      4.8   927.7    0.00     464    84.9
 242   16:20   73.3    19    3.8   252      4.8   927.6    0.00     429    85.2
 242   16:30   72.6    26    3.5   250      5.0   927.6    0.00     394    85.4
 242   16:40   71.9    16    4.1   253      5.2   927.6    0.00     359    85.6
 242   16:50   71.5    21    3.2   277      4.7   927.5    0.00     323    85.8
 242   17:00   71.5    32    2.3   277      3.5   927.4    0.00     287    85.9
 242   17:10   71.3    38    1.0   247      2.6   927.4    0.00     252    86.1
 242   17:20   71.9    38    0.6    49      2.0   927.4    0.00     216    86.3
 242   17:30   71.8    33    0.6   320      2.0   927.3    0.00     183    86.5
 242   17:40   71.4    40    0.8   257      2.2   927.2    0.00     152    86.6
 242   17:50   69.5    46    1.9   267      5.0   927.1    0.00     123    86.8
 242   18:00   68.6    32    3.5   274      5.0   927.1    0.00      97    86.9
 242   18:10   68.4    24    2.2   290      4.3   927.1    0.00      72    86.9
 242   18:20   68.5    22    1.7   285      3.3   927.0    0.00      49    87.0
 242   18:30   67.8    20    2.4   274      4.5   927.0    0.00      29    87.0
 242   18:40   66.0    17    5.0   266      6.3   926.9    0.00      11    87.0
 242   18:50   64.4    18    5.7   274      7.0   926.9    0.00       2    87.0
 242   19:00   63.4    21    5.5   286      6.8   926.9    0.00       1    87.1
 242   19:10   65.0    15    3.6   297      4.7   926.9    0.00       0    87.0
 242   19:20   65.9    18    2.3   281      3.6   926.9    0.00       0    86.9
 242   19:30   66.0    13    0.6    73      2.7   927.0    0.00       0    86.9
 242   19:40   66.2    12    2.7   288      5.5   927.0    0.00       0    86.9
 242   19:50   65.8     8    4.2   295      5.6   927.1    0.00       0    86.9
 242   20:00   66.6     9    3.4   329      5.4   927.1    0.00       0    86.9
 242   20:10   66.9     9    2.9   318      5.2   927.2    0.00       0    86.8
 242   20:20   66.7    10    3.2   359      4.8   927.3    0.00       0    86.7
 242   20:30   66.2    10    4.9   356      6.9   927.3    0.00       0    86.6
 242   20:40   67.1     8    6.0    11      7.7   927.4    0.00       0    86.5
 242   20:50   67.9     7    5.1    11      9.0   927.4    0.00       0    86.3
 242   21:00   67.2     7    6.4    17      8.5   927.4    0.00       0    86.2
 242   21:10   67.8     7    6.3    20      8.8   927.3    0.00       0    86.0
 242   21:20   66.3     8    7.2    24      9.3   927.3    0.00       0    85.9
 242   21:30   65.4     9    8.5    24     11.1   927.3    0.00       0    85.8
 242   21:40   64.8    10    6.9    26     10.4   927.2    0.00       0    85.7
 242   21:50   64.8    10    6.9    28     10.5   927.1    0.00       0    85.6
 242   22:00   64.2    10    5.1    31      6.6   927.1    0.00       0    85.4
 242   22:10   65.2    11    3.2    20      5.8   927.1    0.00       0    85.2
 242   22:20   64.4    17    1.6   252      2.3   927.1    0.00       0    84.9
 242   22:30   64.0    18    0.4   296      1.2   927.2    0.00       0    84.7
 242   22:40   64.0    17    1.4   186      2.9   927.2    0.00       0    84.7

Return to Highlands Peak graphs page.


Western Regional Climate Center,wrcc@dri.edu